Flight Track Log - Related Links

Times and Time Zones

All times are in EDT time to prevent confusion due to time zone crossing. See the VRD360 flight status page for this flight to view local times or setup timezone preferences in your user account.

Time Position Orientation Groundspeed Altitude Reporting Facility
EDT Latitude Longitude Course Direction KTS MPH feet Rate Location/Type
Thu 12:06:54 PM 33.9340 -118.4590 225° Southwest 173 199 1,700  Level FlightAware ADS-B
Thu 12:07:19 PM 33.9190 -118.4770 225° Southwest 204 235 2,000 750 Climbing FlightAware ADS-B
Thu 12:07:34 PM 33.9070 -118.4900 222° Southwest 234 269 2,200 1,733 Climbing FlightAware ADS-B
Thu 12:08:04 PM 33.8810 -118.5190 223° Southwest 257 296 3,300 2,400 Climbing FlightAware ADS-B
Thu 12:08:29 PM 33.8600 -118.5410 221° Southwest 260 299 4,400 2,550 Climbing FlightAware ADS-B
Thu 12:08:44 PM 33.8440 -118.5500 205° Southwest 262 302 5,000 2,100 Climbing FlightAware ADS-B
Thu 12:09:09 PM 33.8130 -118.5460 174° South 278 320 5,800 1,650 Climbing FlightAware ADS-B
Thu 12:09:24 PM 33.7950 -118.5430 172° South 295 339 6,100 2,667 Climbing FlightAware ADS-B
Thu 12:09:54 PM 33.7510 -118.5330 169° South 291 335 7,800 3,100 Climbing FlightAware ADS-B
Thu 12:10:24 PM 33.7110 -118.5220 167° South 289 333 9,200 2,550 Climbing FlightAware ADS-B
Thu 12:10:34 PM 33.7010 -118.5140 146° Southeast 287 330 9,500 2,000 Climbing FlightAware ADS-B
Thu 12:10:54 PM 33.6860 -118.4870 124° Southeast 288 331 10,200 1,600 Climbing FlightAware ADS-B
Thu 12:11:34 PM 33.6670 -118.4220 109° East 326 375 11,100 1,725 Climbing FlightAware ADS-B
Thu 12:12:14 PM 33.6470 -118.3510 109° East 336 387 12,500 2,073 Climbing FlightAware ADS-B
Thu 12:12:29 PM 33.6430 -118.3270 101° East 338 389 13,000 1,800 Climbing FlightAware ADS-B
Thu 12:13:14 PM 33.6440 -118.2370 89° East 356 410 14,300 1,624 Climbing FlightAware ADS-B
Thu 12:13:54 PM 33.6440 -118.1580 90° East 375 432 15,300 1,725 Climbing FlightAware ADS-B
Thu 12:14:34 PM 33.6440 -118.0720 90° East 383 441 16,600 1,920 Climbing FlightAware ADS-B
Thu 12:15:34 PM 33.6440 -117.9470 90° East 391 450 18,500 1,740 Climbing FlightAware ADS-B
Thu 12:16:14 PM 33.6440 -117.8540 90° East 403 464 19,500 1,425 Climbing FlightAware ADS-B
Thu 12:16:54 PM 33.6440 -117.7640 90° East 414 476 20,400 1,341 Climbing FlightAware ADS-B
Thu 12:17:39 PM 33.6440 -117.6610 90° East 425 489 21,400 1,271 Climbing FlightAware ADS-B
Thu 12:18:19 PM 33.6430 -117.5660 91° East 439 505 22,200 1,200 Climbing FlightAware ADS-B
Thu 12:19:04 PM 33.6430 -117.4520 90° East 451 519 23,100 1,200 Climbing FlightAware ADS-B
Thu 12:19:44 PM 33.6420 -117.3520 91° East 458 527 23,900 1,275 Climbing FlightAware ADS-B
Thu 12:20:24 PM 33.6410 -117.2500 91° East 460 529 24,800 1,341 Climbing FlightAware ADS-B
Thu 12:21:09 PM 33.6400 -117.1400 91° East 464 534 25,800 1,200 Climbing FlightAware ADS-B
Thu 12:21:49 PM 33.6390 -117.0340 91° East 469 540 26,500 988 Climbing FlightAware ADS-B
Thu 12:22:34 PM 33.6380 -116.9160 91° East 477 549 27,200 988 Climbing FlightAware ADS-B
Thu 12:23:14 PM 33.6370 -116.8060 91° East 481 554 27,900 975 Climbing FlightAware ADS-B
Thu 12:23:54 PM 33.6360 -116.7000 91° East 488 562 28,500 847 Climbing FlightAware ADS-B
Thu 12:24:39 PM 33.6340 -116.5840 91° East 494 568 29,100 918 Climbing FlightAware ADS-B
Thu 12:25:19 PM 33.6330 -116.4730 91° East 496 571 29,800 1,059 Climbing FlightAware ADS-B
Thu 12:26:04 PM 33.6310 -116.3460 91° East 495 570 30,600 1,059 Climbing FlightAware ADS-B
Thu 12:26:44 PM 33.6300 -116.2400 91° East 494 568 31,300 988 Climbing FlightAware ADS-B
Thu 12:27:29 PM 33.6420 -116.1170 83° East 489 563 32,000 988 Climbing FlightAware ADS-B
Thu 12:28:09 PM 33.6760 -116.0170 68° East 483 556 32,700 750 Climbing FlightAware ADS-B
Thu 12:28:49 PM 33.7070 -115.9220 69° East 476 548 33,000 212 Climbing FlightAware ADS-B
Thu 12:29:34 PM 33.7410 -115.8150 69° East 470 541 33,000  Level FlightAware ADS-B
Thu 12:30:14 PM 33.7720 -115.7220 68° East 470 541 33,000  Level FlightAware ADS-B
Thu 12:30:54 PM 33.8040 -115.6230 69° East 470 541 33,000  Level FlightAware ADS-B
Thu 12:31:39 PM 33.8390 -115.5110 69° East 469 540 33,000  Level FlightAware ADS-B
Thu 12:32:14 PM 33.8660 -115.4330 67° East 469 540 33,000  Level FlightAware ADS-B
Thu 12:33:04 PM 33.9000 -115.3300 68° East 469 540 33,000  Level FlightAware ADS-B
Thu 12:33:44 PM 33.9280 -115.2480 68° East 469 540 33,000  Level FlightAware ADS-B
Thu 12:34:24 PM 33.9550 -115.1650 69° East 469 540 33,000  Level FlightAware ADS-B
Thu 12:35:04 PM 33.9830 -115.0830 68° East 469 540 33,000  Level FlightAware ADS-B
Thu 12:35:44 PM 34.0110 -115.0000 68° East 469 540 33,000  Level FlightAware ADS-B
Thu 12:36:34 PM 34.0450 -114.8970 68° East 469 540 33,000 400 Level FlightAware ADS-B
Thu 12:37:14 PM 34.1010 -114.6870 72° East 498 573 33,600 900 Climbing FlightAware ADS-B
Thu 12:37:54 PM 34.1350 -114.5710 70° East 498 573 34,200 776 Climbing FlightAware ADS-B
Thu 12:38:39 PM 34.1660 -114.4570 72° East 492 566 34,700 565 Climbing FlightAware ADS-B
Thu 12:39:19 PM 34.1960 -114.3490 71° East 492 566 35,000 212 Climbing FlightAware ADS-B
Thu 12:40:04 PM 34.2260 -114.2420 71° East 492 566 35,000  Level FlightAware ADS-B
Thu 12:40:44 PM 34.2630 -114.1110 71° East 493 567 35,000  Level FlightAware ADS-B
Thu 12:41:19 PM 34.2890 -114.0180 71° East 495 570 35,000  Level FlightAware ADS-B
Thu 12:42:34 PM 34.3360 -113.8470 72° East 496 571 35,000  Level FlightAware ADS-B
Thu 12:43:19 PM 34.3760 -113.6990 72° East 494 568 35,000  Level FlightAware ADS-B
Thu 12:43:59 PM 34.4010 -113.6080 72° East 493 567 35,000  Level FlightAware ADS-B
Thu 12:44:39 PM 34.4320 -113.4950 72° East 493 567 35,000  Level FlightAware ADS-B
Thu 12:45:24 PM 34.4650 -113.3740 72° East 492 566 35,000  Level FlightAware ADS-B
Thu 12:46:04 PM 34.4940 -113.2690 71° East 491 565 35,000  Level FlightAware ADS-B
Thu 12:46:49 PM 34.5250 -113.1510 72° East 493 567 35,000  Level FlightAware ADS-B
Thu 12:47:29 PM 34.5530 -113.0460 72° East 495 570 35,000  Level FlightAware ADS-B
Thu 12:48:09 PM 34.5820 -112.9400 72° East 498 573 35,000  Level FlightAware ADS-B
Thu 12:48:54 PM 34.6130 -112.8200 73° East 499 574 35,000  Level FlightAware ADS-B
Thu 12:49:34 PM 34.6400 -112.7210 72° East 500 575 35,000  Level FlightAware ADS-B
Thu 12:50:19 PM 34.6740 -112.5930 72° East 503 579 35,000  Level FlightAware ADS-B
Thu 12:50:59 PM 34.7010 -112.4900 72° East 506 582 35,000  Level FlightAware ADS-B
Thu 12:51:39 PM 34.7280 -112.3760 74° East 508 585 35,000  Level FlightAware ADS-B
Thu 12:52:24 PM 34.7560 -112.2520 75° East 511 588 35,000  Level FlightAware ADS-B
Thu 12:53:04 PM 34.7810 -112.1400 75° East 513 590 35,000  Level FlightAware ADS-B
Thu 12:53:49 PM 34.8100 -112.0130 74° East 515 593 35,000  Level FlightAware ADS-B
Thu 12:54:29 PM 34.8330 -111.9120 74° East 515 593 35,000  Level FlightAware ADS-B
Thu 12:55:09 PM 34.8590 -111.7950 75° East 515 593 35,000  Level FlightAware ADS-B
Thu 12:55:54 PM 34.8880 -111.6660 75° East 513 590 35,000  Level FlightAware ADS-B
Thu 12:56:34 PM 34.9130 -111.5540 75° East 514 592 35,000  Level FlightAware ADS-B
Thu 12:57:19 PM 34.9380 -111.4420 75° East 514 592 35,000  Level FlightAware ADS-B
Thu 12:57:59 PM 34.9590 -111.3470 75° East 513 590 35,000  Level FlightAware ADS-B
Thu 12:58:34 PM 34.9790 -111.2570 75° East 512 589 35,000  Level FlightAware ADS-B
Thu 12:59:34 PM 35.0160 -111.0870 75° East 513 590 35,000  Level FlightAware ADS-B
Thu 01:00:19 PM 35.0460 -110.9510 75° East 514 592 35,000  Level FlightAware ADS-B
Thu 01:00:54 PM 35.0710 -110.8340 75° East 515 593 35,000  Level FlightAware ADS-B
Thu 01:01:39 PM 35.0900 -110.7450 75° East 517 595 35,000  Level FlightAware ADS-B
Thu 01:02:19 PM 35.1160 -110.6250 75° East 517 595 35,000  Level FlightAware ADS-B
Thu 01:02:59 PM 35.1370 -110.5290 75° East 517 595 35,000  Level FlightAware ADS-B
Thu 01:03:49 PM 35.1640 -110.4090 75° East 517 595 35,000  Level FlightAware ADS-B
Thu 01:04:29 PM 35.1850 -110.3130 75° East 517 595 35,000  Level FlightAware ADS-B
Thu 01:05:09 PM 35.2060 -110.2170 75° East 517 595 35,000  Level FlightAware ADS-B
Thu 01:05:49 PM 35.2270 -110.1210 75° East 517 595 35,000  Level FlightAware ADS-B
Thu 01:06:39 PM 35.2530 -110.0000 75° East 517 595 35,000  Level FlightAware ADS-B
Thu 01:07:19 PM 35.2740 -109.9040 75° East 517 595 35,000  Level FlightAware ADS-B
Thu 01:07:59 PM 35.2950 -109.8080 75° East 517 595 35,000  Level FlightAware ADS-B
Thu 01:08:39 PM 35.3160 -109.7120 75° East 517 595 35,000  Level FlightAware ADS-B
Thu 01:09:19 PM 35.3370 -109.6150 75° East 517 595 35,000  Level FlightAware ADS-B
Thu 01:10:09 PM 35.3630 -109.4950 75° East 517 595 35,000  Level FlightAware ADS-B
Thu 01:10:49 PM 35.3840 -109.3990 75° East 517 595 35,000  Level FlightAware ADS-B
Thu 01:11:29 PM 35.4050 -109.3020 75° East 517 595 35,000  Level FlightAware ADS-B
Thu 01:12:54 PM 35.6590 -108.7840 59° Northeast 545 627 35,000  Level FlightAware ADS-B
Thu 01:13:34 PM 35.6970 -108.6660 68° East 545 627 35,000  Level FlightAware ADS-B
Thu 01:14:14 PM 35.7300 -108.5650 68° East 545 627 35,000  Level FlightAware ADS-B
Thu 01:15:14 PM 35.7870 -108.3870 68° East 545 627 35,000  Level FlightAware ADS-B
Thu 01:16:09 PM 35.8380 -108.2270 68° East 543 625 35,000  Level FlightAware ADS-B
Thu 01:16:49 PM 35.8700 -108.1290 68° East 543 625 35,000 67 Level FlightAware ADS-B
Thu 01:17:39 PM 35.9210 -107.9620 69° East 541 623 35,100  Climbing FlightAware ADS-B
Thu 01:18:19 PM 35.9580 -107.8440 69° East 540 621 35,000 -80 Descending FlightAware ADS-B
Thu 01:18:54 PM 35.9880 -107.7470 69° East 541 623 35,000  Level FlightAware ADS-B
Thu 01:19:44 PM 36.0340 -107.5990 69° East 541 623 35,000  Level FlightAware ADS-B
Thu 01:20:24 PM 36.0680 -107.4890 69° East 540 621 35,000  Level FlightAware ADS-B
Thu 01:21:09 PM 36.1090 -107.3570 69° East 540 621 35,000  Level FlightAware ADS-B
Thu 01:21:49 PM 36.1450 -107.2410 69° East 539 620 35,000  Level FlightAware ADS-B
Thu 01:22:44 PM 36.1940 -107.0800 69° East 538 619 35,000  Level FlightAware ADS-B
Thu 01:23:19 PM 36.2230 -106.9840 69° East 539 620 35,000  Level FlightAware ADS-B
Thu 01:24:04 PM 36.2590 -106.8690 69° East 539 620 35,000  Level FlightAware ADS-B
Thu 01:24:44 PM 36.2890 -106.7710 69° East 539 620 35,000  Level FlightAware ADS-B
Thu 01:25:24 PM 36.3320 -106.6240 70° East 538 619 35,000  Level FlightAware ADS-B
Thu 01:26:09 PM 36.3680 -106.5060 69° East 538 619 35,000  Level FlightAware ADS-B
Thu 01:26:59 PM 36.4060 -106.3830 69° East 538 619 35,000  Level FlightAware ADS-B
Thu 01:27:29 PM 36.4290 -106.3100 69° East 538 619 35,000  Level FlightAware ADS-B
Thu 01:28:19 PM 36.4670 -106.1870 69° East 538 619 35,000  Level FlightAware ADS-B
Thu 01:28:59 PM 36.4970 -106.0890 69° East 538 619 35,000  Level FlightAware ADS-B
Thu 01:29:39 PM 36.5270 -105.9900 69° East 538 619 35,000  Level FlightAware ADS-B
Thu 01:30:29 PM 36.5650 -105.8670 69° East 538 619 35,000  Level FlightAware ADS-B
Thu 01:31:09 PM 36.5960 -105.7690 68° East 538 619 35,000  Level FlightAware ADS-B
Thu 01:31:49 PM 36.6260 -105.6710 69° East 538 619 35,000  Level FlightAware ADS-B
Thu 01:32:29 PM 36.6560 -105.5720 69° East 538 619 35,000  Level FlightAware ADS-B
Thu 01:33:09 PM 36.6870 -105.4740 68° East 538 619 35,000  Level FlightAware ADS-B
Thu 01:33:59 PM 36.7240 -105.3500 70° East 538 619 35,000  Level FlightAware ADS-B
Thu 01:34:39 PM 36.7550 -105.2520 68° East 538 619 35,000  Level FlightAware ADS-B
Thu 01:35:19 PM 36.7850 -105.1530 69° East 538 619 35,000  Level FlightAware ADS-B
Thu 01:35:44 PM 36.9122 -104.8464 69° East 538 619 35,000  Level Denver Center
Thu 01:41:10 PM 37.2079 -103.8910 69° East 537 618 35,000  Level FlightAware ADS-B
Thu 01:44:23 PM 37.3775 -103.3350 69° East 535 616 35,000  Level FlightAware ADS-B
Thu 01:44:53 PM 37.4041 -103.2460 69° East 537 618 35,000  Level FlightAware ADS-B
Thu 01:45:25 PM 37.4320 -103.1530 69° East 539 620 35,000  Level FlightAware ADS-B
Thu 01:45:55 PM 37.4587 -103.0640 69° East 540 621 35,000  Level FlightAware ADS-B
Thu 01:46:26 PM 37.4849 -102.9760 69° East 541 623 35,000  Level FlightAware ADS-B
Thu 01:46:56 PM 37.5116 -102.8860 69° East 544 626 35,000  Level FlightAware ADS-B
Thu 01:47:27 PM 37.5389 -102.7930 70° East 546 628 35,000  Level FlightAware ADS-B
Thu 01:47:57 PM 37.5660 -102.7020 69° East 548 631 35,000 97 Level FlightAware ADS-B
Thu 01:48:29 PM 37.5930 -102.6100 70° East 546 628 35,100 128 Climbing FlightAware ADS-B
Thu 01:48:44 PM 37.5975 -102.5900 70° East 546 628 35,100 -133 Level Kansas City Center
Thu 01:49:14 PM 37.6225 -102.5050 70° East 544 626 35,000 -59 Descending Albuquerque Center
Thu 01:50:26 PM 37.6900 -102.2775 69° East 543 625 35,000  Level Denver Center
Thu 01:51:28 PM 37.7386 -102.1067 70° East 540 621 35,000 194 Level Denver Center
Thu 01:52:30 PM 37.7958 -101.9072 70° East 539 620 35,400 439 Climbing Denver Center
Thu 01:53:31 PM 37.8372 -101.7636 70° East 542 624 35,900 677 Climbing Denver Center
Thu 01:54:34 PM 37.9011 -101.5344 70° East 539 620 36,800 528 Climbing Denver Center
Thu 01:55:36 PM 37.9506 -101.3622 70° East 541 623 37,000 97 Climbing Denver Center
Thu 01:56:38 PM 38.0078 -101.1575 70° East 547 629 37,000  Level Denver Center
Thu 01:57:40 PM 38.0567 -100.9831 70° East 546 628 37,000  Level Denver Center
Thu 01:58:42 PM 38.1044 -100.8081 71° East 545 627 37,000  Level Denver Center
Thu 01:59:06 PM 38.1278 -100.7189 72° East 545 627 37,000  Level Kansas City Center
Thu 01:59:44 PM 38.1606 -100.6047 70° East 543 625 37,000  Level Denver Center
Thu 02:00:07 PM 38.1764 -100.5444 72° East 544 626 37,000  Level Kansas City Center
Thu 02:01:10 PM 38.2303 -100.3406 71° East 544 626 37,000  Level Kansas City Center
Thu 02:02:10 PM 38.2769 -100.1672 71° East 540 621 37,000  Level Kansas City Center
Thu 02:03:12 PM 38.3303 -99.9642 71° East 540 621 37,000  Level Kansas City Center
Thu 02:04:16 PM 38.3767 -99.7911 71° East 539 620 37,000  Level Kansas City Center
Thu 02:05:17 PM 38.4225 -99.6189 71° East 538 619 37,000  Level Kansas City Center
Thu 02:06:18 PM 38.4706 -99.4319 72° East 538 619 37,000  Level Kansas City Center
Thu 02:07:21 PM 38.5178 -99.2511 71° East 538 619 37,000  Level Kansas City Center
Thu 02:08:25 PM 38.5642 -99.0708 72° East 535 616 37,000  Level Kansas City Center
Thu 02:09:25 PM 38.6186 -98.8553 72° East 531 611 37,000  Level Kansas City Center
Thu 02:10:27 PM 38.6672 -98.6714 71° East 538 619 37,000  Level Kansas City Center
Thu 02:11:30 PM 38.7122 -98.4900 72° East 534 615 37,000  Level Kansas City Center
Thu 02:12:31 PM 38.7578 -98.3083 72° East 534 615 37,000  Level Kansas City Center
Thu 02:13:35 PM 38.8028 -98.1272 72° East 533 613 37,000  Level Kansas City Center
Thu 02:14:36 PM 38.8478 -97.9428 73° East 537 618 37,000  Level Kansas City Center
Thu 02:15:39 PM 38.8964 -97.7439 73° East 537 618 37,000  Level Kansas City Center
Thu 02:16:40 PM 38.9394 -97.5372 75° East 540 621 37,000  Level Kansas City Center
Thu 02:17:41 PM 38.9636 -97.3411 81° East 546 628 37,000  Level Kansas City Center
Thu 02:23:39 PM 39.1460 -96.2010 81° East 542 624 37,000 15 Level FlightAware ADS-B
Thu 02:24:19 PM 39.1650 -96.0910 77° East 540 621 37,100  Climbing FlightAware ADS-B
Thu 02:25:14 PM 39.1700 -96.0570 79° East 540 621 37,000 -60 Descending FlightAware ADS-B
Thu 02:25:59 PM 39.1950 -95.9090 78° East 538 619 37,000  Level FlightAware ADS-B
Thu 02:26:39 PM 39.2200 -95.7610 78° East 538 619 37,000  Level FlightAware ADS-B
Thu 02:27:24 PM 39.2470 -95.5990 78° East 538 619 37,000  Level FlightAware ADS-B
Thu 02:28:04 PM 39.2700 -95.4640 78° East 537 618 37,000  Level FlightAware ADS-B
Thu 02:28:44 PM 39.2860 -95.3610 79° East 536 617 37,000  Level FlightAware ADS-B
Thu 02:29:24 PM 39.3070 -95.2330 78° East 536 617 37,000  Level FlightAware ADS-B
Thu 02:30:09 PM 39.3310 -95.0880 78° East 536 617 37,000  Level FlightAware ADS-B
Thu 02:30:49 PM 39.3490 -94.9700 79° East 535 616 37,000  Level FlightAware ADS-B
Thu 02:31:34 PM 39.3720 -94.8300 78° East 534 615 37,000  Level FlightAware ADS-B
Thu 02:32:14 PM 39.3930 -94.6930 79° East 532 612 37,000  Level FlightAware ADS-B
Thu 02:32:59 PM 39.4150 -94.5570 78° East 532 612 37,000  Level FlightAware ADS-B
Thu 02:33:39 PM 39.4500 -94.3300 79° East 533 613 37,000  Level FlightAware ADS-B
Thu 02:34:19 PM 39.4700 -94.2030 78° East 534 615 37,000  Level FlightAware ADS-B
Thu 02:35:04 PM 39.4910 -94.0640 79° East 534 615 37,000  Level FlightAware ADS-B
Thu 02:35:44 PM 39.5120 -93.9430 77° East 531 611 37,000  Level FlightAware ADS-B
Thu 02:36:29 PM 39.5420 -93.8000 75° East 531 611 37,000  Level FlightAware ADS-B
Thu 02:37:09 PM 39.5670 -93.6820 75° East 530 610 37,000  Level FlightAware ADS-B
Thu 02:37:49 PM 39.5920 -93.5560 76° East 528 608 37,000  Level FlightAware ADS-B
Thu 02:38:34 PM 39.6200 -93.4210 75° East 528 608 37,000  Level FlightAware ADS-B
Thu 02:39:14 PM 39.6460 -93.2970 75° East 529 609 37,000  Level FlightAware ADS-B
Thu 02:39:54 PM 39.6700 -93.1750 76° East 530 610 37,000  Level FlightAware ADS-B
Thu 02:40:39 PM 39.6990 -93.0340 75° East 530 610 37,000  Level FlightAware ADS-B
Thu 02:41:19 PM 39.7210 -92.9240 75° East 531 611 37,000  Level FlightAware ADS-B
Thu 02:42:04 PM 39.7510 -92.7740 75° East 533 613 37,000  Level FlightAware ADS-B
Thu 02:42:44 PM 39.7730 -92.6610 76° East 534 615 37,000  Level FlightAware ADS-B
Thu 02:43:19 PM 39.7960 -92.5440 76° East 534 615 37,000  Level FlightAware ADS-B
Thu 02:44:09 PM 39.8260 -92.3910 76° East 533 613 37,000  Level FlightAware ADS-B
Thu 02:44:49 PM 39.8490 -92.2690 76° East 531 611 37,000  Level FlightAware ADS-B
Thu 02:45:34 PM 39.8770 -92.1240 76° East 528 608 37,000  Level FlightAware ADS-B
Thu 02:46:09 PM 39.8970 -92.0300 74° East 528 608 37,000  Level FlightAware ADS-B
Thu 02:47:24 PM 39.9400 -91.7930 77° East 527 606 37,000  Level FlightAware ADS-B
Thu 02:48:04 PM 39.9650 -91.6620 76° East 529 609 37,000  Level FlightAware ADS-B
Thu 02:48:49 PM 39.9910 -91.5240 76° East 528 608 37,000 71 Level FlightAware ADS-B
Thu 02:49:29 PM 40.0110 -91.4120 77° East 526 605 37,100  Climbing FlightAware ADS-B
Thu 02:50:09 PM 40.0350 -91.2830 76° East 524 603 37,000 -71 Descending FlightAware ADS-B
Thu 02:50:54 PM 40.0610 -91.1450 76° East 526 605 37,000  Level FlightAware ADS-B
Thu 02:51:34 PM 40.0840 -91.0180 77° East 528 608 37,000  Level FlightAware ADS-B
Thu 02:52:19 PM 40.1090 -90.8800 77° East 528 608 37,000  Level FlightAware ADS-B
Thu 02:52:54 PM 40.1270 -90.7750 77° East 528 608 37,000 71 Level FlightAware ADS-B
Thu 02:53:44 PM 40.1560 -90.6160 77° East 526 605 37,100 71 Climbing FlightAware ADS-B
Thu 02:54:19 PM 40.1740 -90.5140 77° East 525 604 37,100 -71 Level FlightAware ADS-B
Thu 02:55:09 PM 40.2020 -90.3520 77° East 521 600 37,000 -67 Descending FlightAware ADS-B
Thu 02:55:49 PM 40.2230 -90.2330 77° East 522 601 37,000  Level FlightAware ADS-B
Thu 02:56:34 PM 40.2470 -90.0950 77° East 523 602 37,000  Level FlightAware ADS-B
Thu 02:57:09 PM 40.2630 -89.9980 78° East 525 604 37,000 75 Level FlightAware ADS-B
Thu 02:57:54 PM 40.2900 -89.8390 77° East 524 603 37,100 67 Climbing FlightAware ADS-B
Thu 02:58:39 PM 40.3130 -89.7040 77° East 522 601 37,100 -71 Level FlightAware ADS-B
Thu 02:59:19 PM 40.3340 -89.5820 77° East 521 600 37,000 -71 Descending FlightAware ADS-B
Thu 03:00:04 PM 40.3570 -89.4440 78° East 520 598 37,000  Level FlightAware ADS-B
Thu 03:00:44 PM 40.3760 -89.3270 78° East 520 598 37,000  Level FlightAware ADS-B
Thu 03:01:19 PM 40.3930 -89.2240 78° East 519 597 37,000  Level FlightAware ADS-B
Thu 03:02:09 PM 40.4190 -89.0640 78° East 518 596 37,000  Level FlightAware ADS-B
Thu 03:02:44 PM 40.4380 -88.9520 77° East 518 596 37,000  Level FlightAware ADS-B
Thu 03:03:34 PM 40.4620 -88.8000 78° East 518 596 37,000  Level FlightAware ADS-B
Thu 03:04:14 PM 40.4810 -88.6780 78° East 519 597 37,000  Level FlightAware ADS-B
Thu 03:04:54 PM 40.5020 -88.5510 78° East 521 600 37,000  Level FlightAware ADS-B
Thu 03:05:39 PM 40.5230 -88.4150 78° East 525 604 37,000  Level FlightAware ADS-B
Thu 03:06:19 PM 40.5410 -88.2990 78° East 528 608 37,000  Level FlightAware ADS-B
Thu 03:07:04 PM 40.5640 -88.1510 78° East 531 611 37,000 71 Level FlightAware ADS-B
Thu 03:07:44 PM 40.5850 -88.0140 79° East 531 611 37,100 80 Climbing FlightAware ADS-B
Thu 03:08:19 PM 40.6000 -87.9180 78° East 532 612 37,100 -71 Level FlightAware ADS-B
Thu 03:09:09 PM 40.6250 -87.7470 79° East 530 610 37,000 -67 Descending FlightAware ADS-B
Thu 03:09:49 PM 40.6440 -87.6240 78° East 528 608 37,000  Level FlightAware ADS-B
Thu 03:10:34 PM 40.6650 -87.4810 79° East 527 606 37,000  Level FlightAware ADS-B
Thu 03:11:14 PM 40.6830 -87.3620 79° East 526 605 37,000  Level FlightAware ADS-B
Thu 03:11:54 PM 40.7020 -87.2320 79° East 526 605 37,000  Level FlightAware ADS-B
Thu 03:12:39 PM 40.7230 -87.0830 79° East 525 604 37,000  Level FlightAware ADS-B
Thu 03:13:19 PM 40.7400 -86.9610 80° East 525 604 37,000  Level FlightAware ADS-B
Thu 03:14:04 PM 40.7600 -86.8260 79° East 525 604 37,000  Level FlightAware ADS-B
Thu 03:14:44 PM 40.7780 -86.6970 80° East 524 603 37,000  Level FlightAware ADS-B
Thu 03:15:19 PM 40.7920 -86.5970 79° East 524 603 37,000  Level FlightAware ADS-B
Thu 03:16:04 PM 40.8120 -86.4500 80° East 525 604 37,000  Level FlightAware ADS-B
Thu 03:16:49 PM 40.8320 -86.3070 79° East 524 603 37,000  Level FlightAware ADS-B
Thu 03:17:29 PM 40.8500 -86.1780 80° East 523 602 37,000  Level FlightAware ADS-B
Thu 03:18:14 PM 40.8690 -86.0350 80° East 521 600 37,000  Level FlightAware ADS-B
Thu 03:18:54 PM 40.8860 -85.9090 80° East 518 596 37,000  Level FlightAware ADS-B
Thu 03:19:39 PM 40.9030 -85.7740 80° East 515 593 37,000  Level FlightAware ADS-B
Thu 03:20:14 PM 40.9180 -85.6650 80° East 514 592 37,000  Level FlightAware ADS-B
Thu 03:21:04 PM 40.9380 -85.5120 80° East 511 588 37,000  Level FlightAware ADS-B
Thu 03:21:34 PM 40.9500 -85.4160 81° East 512 589 37,000  Level FlightAware ADS-B
Thu 03:22:24 PM 40.9690 -85.2670 80° East 512 589 37,000  Level FlightAware ADS-B
Thu 03:23:09 PM 40.9930 -85.1270 77° East 508 585 37,000  Level FlightAware ADS-B
Thu 03:23:49 PM 41.0190 -85.0080 74° East 507 583 37,000  Level FlightAware ADS-B
Thu 03:24:29 PM 41.0450 -84.8890 74° East 507 583 37,000  Level FlightAware ADS-B
Thu 03:25:14 PM 41.0730 -84.7560 74° East 509 586 37,000  Level FlightAware ADS-B
Thu 03:25:59 PM 41.1030 -84.6160 74° East 511 588 37,000  Level FlightAware ADS-B
Thu 03:26:39 PM 41.1290 -84.4960 74° East 512 589 37,000  Level FlightAware ADS-B
Thu 03:27:19 PM 41.1540 -84.3750 75° East 512 589 37,000  Level FlightAware ADS-B
Thu 03:28:04 PM 41.1840 -84.2360 74° East 513 590 37,000  Level FlightAware ADS-B
Thu 03:28:44 PM 41.2090 -84.1150 75° East 514 592 37,000  Level FlightAware ADS-B
Thu 03:29:29 PM 41.2360 -83.9830 75° East 512 589 37,000  Level FlightAware ADS-B
Thu 03:30:09 PM 41.2610 -83.8630 74° East 510 587 37,000  Level FlightAware ADS-B
Thu 03:30:49 PM 41.2860 -83.7400 75° East 509 586 37,000  Level FlightAware ADS-B
Thu 03:31:34 PM 41.3140 -83.6030 75° East 509 586 37,000  Level FlightAware ADS-B
Thu 03:32:14 PM 41.3370 -83.4880 75° East 511 588 37,000  Level FlightAware ADS-B
Thu 03:32:54 PM 41.3630 -83.3590 75° East 513 590 37,000  Level FlightAware ADS-B
Thu 03:33:39 PM 41.3900 -83.2240 75° East 517 595 37,000  Level FlightAware ADS-B
Thu 03:34:19 PM 41.4140 -83.1030 75° East 518 596 37,000 71 Level FlightAware ADS-B
Thu 03:35:04 PM 41.4410 -82.9670 75° East 516 594 37,100 71 Climbing FlightAware ADS-B
Thu 03:35:44 PM 41.4660 -82.8410 75° East 514 592 37,100 -80 Level FlightAware ADS-B
Thu 03:36:19 PM 41.4840 -82.7470 76° East 512 589 37,000 -75 Descending FlightAware ADS-B
Thu 03:37:04 PM 41.5140 -82.5960 75° East 510 587 37,000  Level FlightAware ADS-B
Thu 03:37:49 PM 41.5390 -82.4640 76° East 512 589 37,000  Level FlightAware ADS-B
Thu 03:38:34 PM 41.5660 -82.3240 76° East 513 590 37,000  Level FlightAware ADS-B
Thu 03:39:14 PM 41.5890 -82.1990 76° East 512 589 37,000  Level FlightAware ADS-B
Thu 03:39:54 PM 41.6120 -82.0770 76° East 511 588 37,000  Level FlightAware ADS-B
Thu 03:40:39 PM 41.6370 -81.9440 76° East 510 587 37,000  Level FlightAware ADS-B
Thu 03:41:19 PM 41.6610 -81.8150 76° East 508 585 37,000  Level FlightAware ADS-B
Thu 03:42:04 PM 41.6870 -81.6780 76° East 507 583 37,000  Level FlightAware ADS-B
Thu 03:42:44 PM 41.7080 -81.5600 77° East 508 585 37,000  Level FlightAware ADS-B
Thu 03:43:24 PM 41.7310 -81.4370 76° East 509 586 37,000  Level FlightAware ADS-B
Thu 03:44:04 PM 41.7530 -81.3150 76° East 509 586 37,000  Level FlightAware ADS-B
Thu 03:44:49 PM 41.7770 -81.1800 77° East 507 583 37,000  Level FlightAware ADS-B
Thu 03:45:34 PM 41.8020 -81.0440 76° East 505 581 37,000  Level FlightAware ADS-B
Thu 03:46:14 PM 41.8230 -80.9210 77° East 507 583 37,000  Level FlightAware ADS-B
Thu 03:46:59 PM 41.8490 -80.7790 76° East 509 586 37,000  Level FlightAware ADS-B
Thu 03:47:39 PM 41.8690 -80.6600 77° East 510 587 37,000  Level FlightAware ADS-B
Thu 03:48:19 PM 41.8910 -80.5360 77° East 510 587 37,000  Level FlightAware ADS-B
Thu 03:49:04 PM 41.9140 -80.4020 77° East 508 585 37,000  Level FlightAware ADS-B
Thu 03:49:44 PM 41.9350 -80.2760 77° East 508 585 37,000  Level FlightAware ADS-B
Thu 03:50:29 PM 41.9590 -80.1360 77° East 507 583 37,000 71 Level FlightAware ADS-B
Thu 03:51:09 PM 41.9800 -80.0140 77° East 506 582 37,100  Climbing FlightAware ADS-B
Thu 03:51:49 PM 42.0000 -79.8920 78° East 505 581 37,000 -71 Descending FlightAware ADS-B
Thu 03:52:34 PM 42.0230 -79.7550 77° East 505 581 37,000  Level FlightAware ADS-B
Thu 03:53:14 PM 42.0430 -79.6340 77° East 505 581 37,000  Level FlightAware ADS-B
Thu 03:53:59 PM 42.0640 -79.5050 78° East 504 580 37,000  Level FlightAware ADS-B
Thu 03:54:39 PM 42.0860 -79.3740 77° East 505 581 37,000  Level FlightAware ADS-B
Thu 03:55:19 PM 42.1050 -79.2490 78° East 506 582 37,000  Level FlightAware ADS-B
Thu 03:55:59 PM 42.1250 -79.1280 77° East 507 583 37,000  Level FlightAware ADS-B
Thu 03:56:44 PM 42.1470 -78.9870 78° East 509 586 37,000 63 Level FlightAware ADS-B
Thu 03:57:34 PM 42.1710 -78.8370 78° East 507 583 37,100  Climbing FlightAware ADS-B
Thu 03:58:19 PM 42.1920 -78.7030 78° East 506 582 37,000 -67 Descending FlightAware ADS-B
Thu 03:59:04 PM 42.2130 -78.5700 78° East 498 573 37,000  Level FlightAware ADS-B
Thu 03:59:49 PM 42.2350 -78.4270 78° East 498 573 37,000  Level FlightAware ADS-B
Thu 04:00:29 PM 42.2530 -78.3060 79° East 501 577 37,000  Level FlightAware ADS-B
Thu 04:01:09 PM 42.2720 -78.1830 78° East 506 582 37,000  Level FlightAware ADS-B
Thu 04:01:54 PM 42.2920 -78.0450 79° East 510 587 37,000  Level FlightAware ADS-B
Thu 04:02:34 PM 42.3100 -77.9230 79° East 513 590 37,000  Level FlightAware ADS-B
Thu 04:03:19 PM 42.3320 -77.7740 79° East 516 594 37,000  Level FlightAware ADS-B
Thu 04:03:59 PM 42.3500 -77.6500 79° East 518 596 37,000 75 Level FlightAware ADS-B
Thu 04:04:39 PM 42.3690 -77.5230 79° East 518 596 37,100 71 Climbing FlightAware ADS-B
Thu 04:05:24 PM 42.3890 -77.3830 79° East 513 590 37,100 -75 Level FlightAware ADS-B
Thu 04:05:59 PM 42.4050 -77.2730 79° East 510 587 37,000 -71 Descending FlightAware ADS-B
Thu 04:06:49 PM 42.4270 -77.1150 79° East 506 582 37,000  Level FlightAware ADS-B
Thu 04:07:29 PM 42.4450 -76.9900 79° East 505 581 37,000  Level FlightAware ADS-B
Thu 04:08:09 PM 42.4580 -76.8650 82° East 507 583 37,000  Level FlightAware ADS-B
Thu 04:08:49 PM 42.4710 -76.7360 82° East 511 588 37,000  Level FlightAware ADS-B
Thu 04:09:29 PM 42.4840 -76.6180 81° East 512 589 37,000  Level FlightAware ADS-B
Thu 04:10:14 PM 42.4990 -76.4790 82° East 514 592 37,000 71 Level FlightAware ADS-B
Thu 04:10:54 PM 42.5120 -76.3510 82° East 514 592 37,100  Climbing FlightAware ADS-B
Thu 04:11:44 PM 42.5290 -76.1840 82° East 509 586 37,000 -67 Descending FlightAware ADS-B
Thu 04:12:24 PM 42.5420 -76.0590 82° East 508 585 37,000  Level FlightAware ADS-B
Thu 04:13:04 PM 42.5550 -75.9310 82° East 499 574 37,000  Level FlightAware ADS-B
Thu 04:13:49 PM 42.5680 -75.7970 82° East 500 575 37,000  Level FlightAware ADS-B
Thu 04:14:24 PM 42.5790 -75.6840 82° East 501 577 37,000  Level FlightAware ADS-B
Thu 04:15:09 PM 42.5930 -75.5470 82° East 498 573 37,000  Level FlightAware ADS-B
Thu 04:15:54 PM 42.6060 -75.4060 83° East 495 570 37,000  Level FlightAware ADS-B
Thu 04:16:29 PM 42.6160 -75.3020 83° East 494 568 37,000  Level FlightAware ADS-B
Thu 04:17:14 PM 42.6290 -75.1680 82° East 495 570 37,000  Level FlightAware ADS-B
Thu 04:17:59 PM 42.6420 -75.0240 83° East 497 572 37,000  Level FlightAware ADS-B
Thu 04:18:39 PM 42.6530 -74.8980 83° East 499 574 37,000  Level FlightAware ADS-B
Thu 04:19:14 PM 42.6620 -74.8030 83° East 500 575 37,000  Level FlightAware ADS-B
Thu 04:20:04 PM 42.6770 -74.6410 83° East 501 577 37,000  Level FlightAware ADS-B
Thu 04:20:54 PM 42.6900 -74.4910 83° East 501 577 37,000  Level FlightAware ADS-B
Thu 04:21:44 PM 42.7020 -74.3580 83° East 501 577 37,000  Level FlightAware ADS-B
Thu 04:22:19 PM 42.7140 -74.2130 84° East 504 580 37,000  Level FlightAware ADS-B
Thu 04:23:04 PM 42.7260 -74.0620 84° East 507 583 37,000  Level FlightAware ADS-B
Thu 04:23:49 PM 42.7380 -73.9190 83° East 507 583 37,000 71 Level FlightAware ADS-B
Thu 04:24:29 PM 42.7460 -73.7930 85° East 498 573 37,100  Climbing FlightAware ADS-B
Thu 04:25:14 PM 42.7320 -73.6550 98° East 490 564 37,000 -494 Descending FlightAware ADS-B
Thu 04:25:54 PM 42.7190 -73.5340 98° East 486 559 36,400 -900 Descending FlightAware ADS-B
Thu 04:26:34 PM 42.7060 -73.4120 98° East 484 557 35,800 -900 Descending FlightAware ADS-B
Thu 04:27:14 PM 42.6940 -73.3020 98° East 482 555 35,200 -1,482 Descending FlightAware ADS-B
Thu 04:27:59 PM 42.6800 -73.1740 98° East 478 550 33,700 -2,467 Descending FlightAware ADS-B
Thu 04:28:44 PM 42.6680 -73.0670 99° East 482 555 31,500 -1,650 Descending FlightAware ADS-B
Thu 04:29:19 PM 42.6590 -72.9730 97° East 482 555 31,500 -3,825 Level FlightAware ADS-B
Thu 04:29:44 PM 42.6620 -73.0080 277° West 27,400 -6,800 Descending FlightAware ADS-B
Thu 04:30:04 PM 42.6370 -72.7910 99° East 500 575 26,400 -2,123 Descending FlightAware ADS-B
Thu 04:30:49 PM 42.6210 -72.6530 99° East 461 531 25,100 -2,118 Descending FlightAware ADS-B
Thu 04:31:29 PM 42.6060 -72.5380 100° East 438 504 23,400 -2,894 Descending FlightAware ADS-B
Thu 04:32:14 PM 42.5910 -72.4180 100° East 434 499 21,000 -2,682 Descending FlightAware ADS-B
Thu 04:32:54 PM 42.5780 -72.3120 99° East 423 487 19,600 -2,175 Descending FlightAware ADS-B
Thu 04:33:34 PM 42.5660 -72.2090 99° East 420 483 18,100 -2,188 Descending FlightAware ADS-B
Thu 04:34:19 PM 42.5510 -72.0930 100° East 417 480 16,500 -2,047 Descending FlightAware ADS-B
Thu 04:34:59 PM 42.5390 -71.9870 99° East 412 474 15,200 -1,906 Descending FlightAware ADS-B
Thu 04:35:44 PM 42.5290 -71.8760 97° East 403 464 13,800 -1,553 Descending FlightAware ADS-B
Thu 04:36:24 PM 42.5210 -71.7800 96° East 377 434 13,000 -1,694 Descending FlightAware ADS-B
Thu 04:37:09 PM 42.5110 -71.6730 97° East 368 423 11,400 -1,553 Descending FlightAware ADS-B
Thu 04:37:49 PM 42.5030 -71.5830 97° East 364 419 10,800 -375 Descending FlightAware ADS-B
Thu 04:38:29 PM 42.4950 -71.4920 97° East 362 417 10,900 -282 Climbing FlightAware ADS-B
Thu 04:39:14 PM 42.4860 -71.3960 97° East 340 391 10,400 -706 Descending FlightAware ADS-B
Thu 04:39:54 PM 42.4780 -71.3140 98° East 312 359 9,900 -1,029 Descending FlightAware ADS-B
Thu 04:40:24 PM 42.4730 -71.2580 97° East 305 351 9,200 -1,333 Descending FlightAware ADS-B
Thu 04:40:39 PM 42.4700 -71.2270 97° East 302 348 8,900 -600 Descending FlightAware ADS-B
Thu 04:41:04 PM 42.4660 -71.1820 97° East 306 352 8,800 -655 Descending FlightAware ADS-B
Thu 04:41:34 PM 42.4610 -71.1260 97° East 300 345 8,300 -1,309 Descending FlightAware ADS-B
Thu 04:41:59 PM 42.4560 -71.0790 98° East 300 345 7,600 -1,091 Descending FlightAware ADS-B
Thu 04:42:29 PM 42.4490 -71.0240 100° East 288 331 7,300 -533 Descending FlightAware ADS-B
Thu 04:42:44 PM 42.4460 -71.0030 101° East 269 310 7,200 -514 Descending FlightAware ADS-B
Thu 04:43:39 PM 42.4600 -70.9160 78° East 241 277 6,700 -600 Descending FlightAware ADS-B
Thu 04:43:54 PM 42.4630 -70.8960 79° East 228 262 6,500 -1,500 Descending FlightAware ADS-B
Thu 04:44:19 PM 42.4690 -70.8610 77° East 217 250 5,700 -1,636 Descending FlightAware ADS-B
Thu 04:44:49 PM 42.4730 -70.8290 80° East 213 245 5,000 -1,855 Descending FlightAware ADS-B
Thu 04:45:14 PM 42.4600 -70.8000 121° Southeast 211 243 4,000 -1,200 Descending FlightAware ADS-B
Thu 04:45:44 PM 42.4400 -70.7830 148° Southeast 204 235 3,900 -1,733 Descending FlightAware ADS-B
Thu 04:45:59 PM 42.4210 -70.7810 176° South 202 232 2,700 -1,527 Descending FlightAware ADS-B
Thu 04:46:39 PM 42.3850 -70.7740 172° South 193 222 2,500 -480 Descending FlightAware ADS-B
Thu 04:47:39 PM 42.3833 -70.8667 172° South 187 215 1,900 -750 Descending KA90
Thu 04:48:39 PM 42.3667 -70.9167 246° West 144 166 1,000 -800 Descending KA90
Thu 04:49:39 PM 42.3667 -70.9667 270° West 136 157 300 -700 Descending KA90
Thu 04:52:00 PM 42.3500 -71.0000 228° Southwest  Level FlightAware Approximate

Login

Don't have an account? Register now (free) for customized features, flight alerts, and more!